Time;durP1;ratioP1;P1;durP2;ratioP2;P2;SDS_P1;SDS_P2;PMS_P1;PMS_P2;Temp;Humidity;BMP_temperature;BMP_pressure;BME280_temperature;BME280_humidity;BME280_pressure;Samples;Min_cycle;Max_cycle;Signal;HPM_P1;HPM_P2
2022/05/18 00:00:51;;;;;;;17.98;12.48;;;19.90;77.30;;;;;;5094623;28;20028;-16
2022/05/18 00:03:22;;;;;;;19.73;14.77;;;19.90;77.40;;;;;;5094482;28;20032;-16
2022/05/18 00:05:49;;;;;;;19.70;14.13;;;19.90;77.40;;;;;;5093707;28;20020;-16
2022/05/18 00:08:15;;;;;;;15.38;10.90;;;20.00;77.50;;;;;;5093470;28;20035;-14
2022/05/18 00:10:45;;;;;;;16.25;11.02;;;20.00;77.50;;;;;;5093730;28;20035;-14
2022/05/18 00:13:12;;;;;;;15.35;11.45;;;20.00;77.50;;;;;;5093881;28;20036;-15
2022/05/18 00:15:40;;;;;;;15.32;10.48;;;20.00;77.70;;;;;;5093925;28;20031;-15
2022/05/18 00:18:06;;;;;;;14.15;10.57;;;20.00;77.50;;;;;;5093729;28;20016;-16
2022/05/18 00:20:33;;;;;;;16.27;10.82;;;20.00;77.60;;;;;;5093708;28;20028;-15
2022/05/18 00:23:02;;;;;;;15.55;10.93;;;20.00;78.10;;;;;;5093693;28;20031;-15
2022/05/18 00:25:37;;;;;;;16.27;10.82;;;20.00;77.80;;;;;;5093854;28;20028;-13
2022/05/18 00:28:05;;;;;;;18.13;12.00;;;19.90;77.90;;;;;;5093938;28;20482;-14
2022/05/18 00:30:32;;;;;;;20.63;14.25;;;19.90;78.00;;;;;;5075492;28;20031;-13
2022/05/18 00:33:04;;;;;;;18.75;13.75;;;19.90;78.00;;;;;;5093649;28;20136;-12
2022/05/18 00:35:32;;;;;;;21.65;14.13;;;19.90;78.20;;;;;;5093278;28;20531;-13
2022/05/18 00:37:58;;;;;;;22.23;16.60;;;19.90;78.40;;;;;;5093200;28;20487;-15
2022/05/18 00:40:24;;;;;;;19.38;14.70;;;19.90;78.40;;;;;;5093178;28;20105;-13
2022/05/18 00:42:51;;;;;;;20.85;15.38;;;19.90;78.50;;;;;;5093785;28;20099;-12
2022/05/18 00:45:17;;;;;;;20.25;15.43;;;19.90;78.50;;;;;;5093258;28;20471;-12
2022/05/18 00:47:43;;;;;;;20.95;15.02;;;19.90;78.60;;;;;;5075223;28;20410;-14
2022/05/18 00:50:22;;;;;;;21.20;15.73;;;19.90;78.60;;;;;;5093295;28;20028;-15
2022/05/18 00:53:09;;;;;;;21.73;14.90;;;19.90;78.60;;;;;;5093177;28;20028;-14
2022/05/18 00:55:39;;;;;;;19.20;13.88;;;19.90;78.60;;;;;;5093223;28;20031;-15
2022/05/18 00:58:19;;;;;;;19.35;12.77;;;20.00;78.40;;;;;;5093128;28;20506;-16
2022/05/18 01:00:47;;;;;;;19.92;15.43;;;20.00;78.40;;;;;;5093455;28;20020;-16
2022/05/18 01:03:19;;;;;;;20.48;15.30;;;20.00;78.40;;;;;;5093070;28;20498;-15
2022/05/18 01:05:49;;;;;;;17.55;11.65;;;20.10;78.50;;;;;;5093100;28;20024;-13
2022/05/18 01:08:20;;;;;;;20.48;14.07;;;20.00;78.30;;;;;;5092818;28;20027;-16
2022/05/18 01:10:46;;;;;;;17.00;13.68;;;20.00;78.50;;;;;;5093335;28;20030;-15
2022/05/18 01:13:12;;;;;;;21.58;14.63;;;20.00;78.50;;;;;;5092846;28;20047;-15
2022/05/18 01:15:38;;;;;;;21.65;16.75;;;20.00;78.60;;;;;;5092980;28;20036;-16
2022/05/18 01:18:05;;;;;;;28.30;19.70;;;20.10;78.50;;;;;;5093006;28;20028;-15
2022/05/18 01:20:38;;;;;;;22.70;16.83;;;20.10;78.60;;;;;;5075020;28;20051;-13
2022/05/18 01:23:12;;;;;;;20.65;14.68;;;20.10;78.70;;;;;;5092671;28;20032;-14
2022/05/18 01:26:02;;;;;;;22.00;15.93;;;20.10;78.80;;;;;;5092780;28;20032;-15
2022/05/18 01:28:37;;;;;;;18.27;12.68;;;20.10;78.90;;;;;;5092707;28;20024;-15
2022/05/18 01:31:04;;;;;;;19.67;14.23;;;20.10;78.70;;;;;;5092855;28;20066;-15
2022/05/18 01:33:32;;;;;;;19.92;14.57;;;20.00;78.80;;;;;;5094637;28;20040;-16
2022/05/18 01:35:58;;;;;;;20.83;14.88;;;20.00;78.90;;;;;;5096614;28;20038;-17
2022/05/18 01:38:25;;;;;;;22.02;16.58;;;20.00;79.00;;;;;;5096695;28;20137;-15
2022/05/18 01:41:08;;;;;;;27.30;20.60;;;20.00;79.10;;;;;;5096876;28;20035;-15
2022/05/18 01:43:45;;;;;;;27.80;19.60;;;19.90;79.30;;;;;;5096862;28;20043;-17
2022/05/18 01:46:16;;;;;;;23.95;16.45;;;19.90;79.40;;;;;;5096660;28;20066;-15
2022/05/18 01:48:49;;;;;;;24.63;17.02;;;19.90;79.60;;;;;;5096457;28;20070;-15
2022/05/18 01:51:25;;;;;;;21.00;15.52;;;19.80;79.60;;;;;;5096572;28;20032;-14
2022/05/18 01:53:51;;;;;;;28.88;18.85;;;19.80;79.70;;;;;;5096471;28;20102;-15
2022/05/18 01:56:16;;;;;;;28.65;18.83;;;19.80;79.80;;;;;;5096362;28;20112;-15
2022/05/18 01:58:42;;;;;;;24.88;17.92;;;19.70;79.80;;;;;;5096794;28;20396;-14
2022/05/18 02:01:08;;;;;;;22.45;16.52;;;19.70;79.90;;;;;;5096137;28;20046;-15
2022/05/18 02:03:34;;;;;;;29.90;21.13;;;19.70;80.00;;;;;;5096433;28;20023;-15
2022/05/18 02:06:00;;;;;;;31.58;23.98;;;19.70;80.60;;;;;;5096412;28;20028;-14
2022/05/18 02:08:27;;;;;;;33.78;23.95;;;19.60;82.20;;;;;;5077914;28;20047;-15
2022/05/18 02:10:53;;;;;;;56.40;37.22;;;19.60;81.80;;;;;;5096016;28;20028;-14
2022/05/18 02:13:20;;;;;;;52.38;37.15;;;19.50;84.10;;;;;;5096059;28;20115;-15
2022/05/18 02:15:46;;;;;;;47.97;34.05;;;19.50;85.40;;;;;;5096216;28;20502;-14
2022/05/18 02:18:12;;;;;;;49.55;34.60;;;19.50;85.10;;;;;;5095803;28;20020;-16
2022/05/18 02:20:39;;;;;;;52.05;35.17;;;19.60;84.90;;;;;;5095995;28;20085;-15
2022/05/18 02:23:06;;;;;;;46.90;34.42;;;19.70;85.40;;;;;;5095989;28;20031;-16
2022/05/18 02:25:32;;;;;;;54.83;38.53;;;19.70;85.40;;;;;;5096047;28;20016;-16
2022/05/18 02:28:00;;;;;;;39.88;29.35;;;19.80;85.90;;;;;;5077608;28;20020;-15
2022/05/18 02:30:26;;;;;;;53.42;36.35;;;19.90;84.80;;;;;;5095379;28;20073;-15
2022/05/18 02:32:52;;;;;;;40.08;29.10;;;19.90;85.20;;;;;;5077460;28;20059;-15
2022/05/18 02:35:17;;;;;;;39.97;28.63;;;19.90;84.20;;;;;;5073943;28;20072;-15
2022/05/18 02:37:43;;;;;;;36.63;25.73;;;19.90;84.00;;;;;;5075244;28;20035;-15
2022/05/18 02:40:11;;;;;;;35.35;27.13;;;19.90;83.30;;;;;;5075230;28;20060;-16
2022/05/18 02:42:38;;;;;;;40.00;28.50;;;19.90;83.40;;;;;;5075015;28;20090;-14
2022/05/18 02:45:06;;;;;;;34.15;23.90;;;19.90;83.50;;;;;;5074291;28;20024;-14
2022/05/18 02:47:32;;;;;;;39.88;29.02;;;19.90;82.90;;;;;;5075637;28;20032;-16
2022/05/18 02:49:58;;;;;;;28.90;20.85;;;20.00;83.30;;;;;;5075401;28;20556;-15
2022/05/18 02:52:23;;;;;;;26.85;20.25;;;20.00;82.60;;;;;;5074740;28;20530;-16
2022/05/18 02:57:34;;;;;;;37.60;27.60;;;20.00;83.00;;;;;;5075515;28;20043;-15
2022/05/18 03:00:00;;;;;;;40.60;30.67;;;20.00;83.60;;;;;;5073679;28;20463;-15
2022/05/18 03:02:26;;;;;;;46.05;30.38;;;20.00;83.40;;;;;;5074752;28;20404;-15
2022/05/18 03:04:51;;;;;;;37.10;26.83;;;20.00;83.70;;;;;;5074738;28;20032;-15
2022/05/18 03:07:17;;;;;;;32.20;23.88;;;20.00;83.30;;;;;;5074960;28;20025;-15
2022/05/18 03:09:43;;;;;;;35.17;24.77;;;20.00;83.00;;;;;;5074654;28;20484;-16
2022/05/18 03:12:10;;;;;;;38.45;24.77;;;20.00;83.10;;;;;;5074765;28;20096;-15
2022/05/18 03:14:35;;;;;;;29.48;21.45;;;20.10;83.00;;;;;;5074592;28;20025;-16
2022/05/18 03:17:02;;;;;;;37.00;25.58;;;20.10;82.90;;;;;;5074787;28;20024;-16
2022/05/18 03:19:27;;;;;;;35.40;23.70;;;20.10;83.10;;;;;;5074895;28;20086;-15
2022/05/18 03:24:37;;;;;;;28.67;19.80;;;20.20;82.00;;;;;;5074542;28;20039;-17
2022/05/18 03:27:05;;;;;;;29.83;19.85;;;20.10;81.90;;;;;;5074313;28;20017;-15
2022/05/18 03:29:33;;;;;;;31.15;21.88;;;20.10;81.70;;;;;;5074242;28;20420;-15
2022/05/18 03:31:59;;;;;;;25.35;18.00;;;20.10;81.70;;;;;;5074077;28;20028;-16
2022/05/18 03:34:25;;;;;;;24.92;19.27;;;20.10;81.10;;;;;;5083510;28;20048;-15
2022/05/18 03:36:51;;;;;;;29.60;21.50;;;20.20;81.10;;;;;;5094319;28;20507;-15
2022/05/18 03:39:18;;;;;;;30.63;21.58;;;20.10;81.10;;;;;;5094296;28;20053;-15
2022/05/18 03:41:44;;;;;;;25.13;17.27;;;20.10;81.10;;;;;;5094235;28;20380;-16
2022/05/18 03:44:10;;;;;;;27.15;17.75;;;20.10;80.80;;;;;;5094203;28;20032;-14
2022/05/18 03:46:36;;;;;;;23.50;17.17;;;20.20;80.60;;;;;;5094360;28;20034;-15
2022/05/18 03:49:04;;;;;;;24.02;15.77;;;20.20;80.60;;;;;;5094398;28;20020;-16
2022/05/18 03:51:31;;;;;;;21.63;16.13;;;20.10;80.60;;;;;;5094176;28;20040;-16
2022/05/18 03:53:57;;;;;;;19.77;14.93;;;20.10;80.50;;;;;;5094036;28;20063;-15
2022/05/18 03:56:24;;;;;;;20.83;15.23;;;20.10;80.40;;;;;;5093478;28;20063;-16
2022/05/18 03:58:50;;;;;;;20.08;15.02;;;20.10;80.30;;;;;;5093974;28;20078;-16
2022/05/18 04:01:16;;;;;;;16.95;12.13;;;20.00;79.50;;;;;;5094344;28;20024;-16
2022/05/18 04:03:45;;;;;;;16.02;9.38;;;20.00;78.50;;;;;;5093853;28;20443;-15
2022/05/18 04:06:12;;;;;;;13.20;7.32;;;20.00;76.30;;;;;;5094015;28;20148;-16
2022/05/18 04:08:38;;;;;;;10.82;7.13;;;20.00;75.70;;;;;;5093444;28;20479;-16
2022/05/18 04:11:05;;;;;;;14.70;6.63;;;20.00;76.10;;;;;;5094186;28;20035;-15
2022/05/18 04:13:32;;;;;;;16.27;8.93;;;20.10;76.50;;;;;;5094186;28;20036;-16
2022/05/18 04:15:59;;;;;;;18.52;9.82;;;20.00;77.40;;;;;;5093948;28;20031;-16
2022/05/18 04:18:25;;;;;;;17.40;9.13;;;19.80;78.60;;;;;;5093416;28;20027;-14
2022/05/18 04:20:53;;;;;;;24.48;8.70;;;19.50;80.10;;;;;;5093556;28;20395;-14
2022/05/18 04:23:20;;;;;;;13.98;7.47;;;19.20;81.60;;;;;;5093398;28;20012;-15
2022/05/18 04:25:47;;;;;;;16.40;7.78;;;18.90;83.50;;;;;;5093847;28;20032;-15
2022/05/18 04:28:14;;;;;;;15.20;7.03;;;18.60;84.30;;;;;;5075429;28;20483;-16
2022/05/18 04:30:43;;;;;;;11.52;6.65;;;18.40;84.60;;;;;;5093485;28;20024;-17
2022/05/18 04:33:11;;;;;;;11.27;6.20;;;18.30;85.10;;;;;;5093367;28;20077;-17
2022/05/18 04:35:38;;;;;;;15.82;5.65;;;18.20;85.10;;;;;;5093249;28;20058;-14
2022/05/18 04:38:05;;;;;;;9.18;5.40;;;18.10;85.30;;;;;;5093409;28;20378;-14
2022/05/18 04:40:31;;;;;;;11.18;5.30;;;18.10;85.40;;;;;;5093419;28;20196;-14
2022/05/18 04:42:56;;;;;;;10.52;6.05;;;18.20;85.30;;;;;;5093579;28;20024;-15
2022/05/18 04:45:22;;;;;;;8.82;5.00;;;18.20;85.50;;;;;;5093284;28;20032;-15
2022/05/18 04:47:49;;;;;;;9.75;5.72;;;18.20;85.60;;;;;;5093482;28;20059;-15
2022/05/18 04:50:16;;;;;;;9.52;6.25;;;18.30;85.50;;;;;;5093250;28;20028;-15
2022/05/18 04:52:42;;;;;;;10.63;6.35;;;18.30;86.40;;;;;;5093330;28;20039;-15
2022/05/18 04:55:08;;;;;;;11.27;6.28;;;18.40;87.30;;;;;;5075130;28;20040;-15
2022/05/18 04:57:34;;;;;;;10.13;5.47;;;18.40;86.90;;;;;;5093330;28;20061;-16
2022/05/18 05:00:01;;;;;;;11.80;6.70;;;18.40;86.20;;;;;;5075241;28;20077;-16
2022/05/18 05:02:27;;;;;;;14.65;6.70;;;18.30;85.80;;;;;;5093193;28;20096;-16
2022/05/18 05:04:54;;;;;;;11.50;6.45;;;18.30;85.80;;;;;;5093077;28;20504;-16
2022/05/18 05:07:20;;;;;;;13.90;6.63;;;18.30;85.90;;;;;;5093275;28;20499;-16
2022/05/18 05:09:46;;;;;;;9.73;6.03;;;18.20;86.20;;;;;;5097520;28;20020;-16
2022/05/18 05:12:12;;;;;;;10.23;5.47;;;18.20;86.30;;;;;;5097200;28;20111;-14
2022/05/18 05:14:40;;;;;;;9.05;4.72;;;18.20;86.20;;;;;;5096913;28;20031;-16
2022/05/18 05:17:07;;;;;;;8.43;5.70;;;18.20;86.30;;;;;;5097310;28;20102;-16
2022/05/18 05:19:35;;;;;;;12.38;6.93;;;18.30;86.50;;;;;;5097304;28;20107;-15
2022/05/18 05:22:01;;;;;;;12.10;6.88;;;18.30;87.00;;;;;;5096887;28;20523;-15
2022/05/18 05:24:27;;;;;;;12.50;7.00;;;18.30;87.80;;;;;;5096662;28;20030;-16
2022/05/18 05:26:59;;;;;;;9.30;6.10;;;18.30;88.20;;;;;;5096829;28;20471;-16
2022/05/18 05:29:25;;;;;;;11.13;6.18;;;18.40;88.30;;;;;;5097157;28;20028;-15
2022/05/18 05:31:51;;;;;;;12.77;6.60;;;18.40;88.00;;;;;;5096914;28;20051;-15
2022/05/18 05:34:17;;;;;;;11.18;6.85;;;18.50;88.50;;;;;;5096212;28;20193;-14
2022/05/18 05:36:43;;;;;;;12.50;6.78;;;18.60;88.60;;;;;;5097151;28;20095;-14
2022/05/18 05:39:09;;;;;;;12.60;6.28;;;18.60;87.80;;;;;;5096899;28;20107;-14
2022/05/18 05:41:35;;;;;;;10.80;5.70;;;18.60;88.10;;;;;;5097267;28;20024;-16
2022/05/18 05:44:00;;;;;;;11.07;6.43;;;18.60;88.10;;;;;;5096551;28;20075;-14
2022/05/18 05:46:27;;;;;;;9.70;5.72;;;18.60;88.20;;;;;;5078157;28;20032;-14
2022/05/18 05:48:55;;;;;;;10.05;5.40;;;18.70;88.00;;;;;;5096765;28;20024;-15
2022/05/18 05:51:23;;;;;;;11.43;5.43;;;18.70;87.80;;;;;;5096569;28;20394;-15
2022/05/18 05:53:51;;;;;;;9.48;5.13;;;18.70;87.90;;;;;;5096427;28;20494;-14
2022/05/18 05:56:19;;;;;;;7.60;4.80;;;18.80;87.80;;;;;;5096133;28;20422;-15
2022/05/18 05:58:47;;;;;;;6.57;4.60;;;18.90;87.70;;;;;;5096607;28;20028;-14
2022/05/18 06:01:15;;;;;;;9.93;5.10;;;19.10;87.60;;;;;;5096318;28;20031;-14
2022/05/18 06:03:43;;;;;;;7.03;4.80;;;19.20;87.00;;;;;;5096609;28;20031;-11
2022/05/18 06:06:10;;;;;;;9.27;4.63;;;19.30;86.90;;;;;;5096459;28;20016;-12
2022/05/18 06:08:37;;;;;;;8.88;5.10;;;19.40;86.30;;;;;;5095794;28;20028;-14
2022/05/18 06:11:05;;;;;;;7.82;5.03;;;19.40;86.30;;;;;;5096324;28;20027;-14
2022/05/18 06:13:32;;;;;;;10.73;6.13;;;19.50;86.20;;;;;;5096125;28;20032;-14
2022/05/18 06:15:59;;;;;;;9.98;4.85;;;19.70;86.20;;;;;;5077843;28;20399;-11
2022/05/18 06:18:26;;;;;;;8.07;5.22;;;19.70;85.00;;;;;;5095634;28;20502;-12
2022/05/18 06:20:53;;;;;;;8.90;5.05;;;19.90;84.20;;;;;;5096172;28;20065;-13
2022/05/18 06:23:19;;;;;;;7.93;5.20;;;19.90;83.80;;;;;;5096047;28;20047;-13
2022/05/18 06:25:46;;;;;;;8.10;4.82;;;19.90;83.20;;;;;;5095968;28;20032;-12
2022/05/18 06:28:12;;;;;;;6.85;4.45;;;20.00;83.10;;;;;;5095702;28;20059;-13
2022/05/18 06:30:38;;;;;;;9.07;4.78;;;20.20;83.20;;;;;;5077760;28;20020;-13
2022/05/18 06:33:05;;;;;;;8.85;5.05;;;20.20;82.20;;;;;;5095537;28;20050;-12
2022/05/18 06:35:31;;;;;;;10.23;5.13;;;20.30;82.10;;;;;;5095449;28;20563;-14
2022/05/18 06:37:58;;;;;;;6.72;4.55;;;20.40;82.60;;;;;;5095578;28;20368;-14
2022/05/18 06:41:21;;;;;;;8.70;4.60;;;20.40;82.30;;;;;;5095326;28;20016;-15
2022/05/18 06:43:10;;;;;;;7.32;4.72;;;20.50;82.20;;;;;;5095236;28;20111;-14
2022/05/18 06:45:36;;;;;;;9.20;4.78;;;20.60;82.00;;;;;;5095722;28;20052;-14
2022/05/18 06:48:02;;;;;;;7.78;4.43;;;20.70;82.10;;;;;;5095298;28;20024;-13
2022/05/18 06:50:28;;;;;;;9.02;4.90;;;20.80;81.60;;;;;;5095175;28;20095;-15
2022/05/18 06:52:54;;;;;;;9.25;4.78;;;20.90;81.20;;;;;;5094918;28;20123;-14
2022/05/18 06:55:19;;;;;;;8.10;4.75;;;21.00;80.50;;;;;;5095151;28;20122;-13
2022/05/18 06:57:47;;;;;;;7.22;5.13;;;21.20;80.50;;;;;;5095199;28;20016;-14
2022/05/18 07:00:13;;;;;;;8.65;4.85;;;21.30;80.30;;;;;;5095085;28;20031;-15
2022/05/18 07:02:39;;;;;;;7.55;5.07;;;21.40;79.40;;;;;;5095010;28;20016;-14
2022/05/18 07:05:06;;;;;;;8.80;5.70;;;21.60;78.80;;;;;;5095476;28;20028;-15
2022/05/18 07:07:31;;;;;;;7.47;5.45;;;21.80;78.40;;;;;;5095073;28;20024;-13
2022/05/18 07:09:57;;;;;;;8.85;5.40;;;21.90;77.30;;;;;;5077138;28;20369;-14
2022/05/18 07:12:23;;;;;;;8.80;6.47;;;21.90;76.90;;;;;;5094817;28;20388;-13
2022/05/18 07:14:49;;;;;;;9.63;6.78;;;22.00;76.50;;;;;;5095127;28;20050;-14
2022/05/18 07:17:15;;;;;;;8.45;5.80;;;22.10;76.40;;;;;;5095041;28;20396;-14
2022/05/18 07:19:41;;;;;;;12.32;6.85;;;22.20;75.50;;;;;;5094688;28;20101;-15
2022/05/18 07:22:07;;;;;;;10.73;7.03;;;22.20;75.00;;;;;;5094860;28;20085;-15
2022/05/18 07:24:33;;;;;;;9.77;6.57;;;22.20;74.70;;;;;;5094658;28;20476;-13
2022/05/18 07:26:59;;;;;;;11.65;6.95;;;22.20;73.60;;;;;;5094563;28;20107;-14
2022/05/18 07:29:25;;;;;;;11.38;7.07;;;22.20;72.80;;;;;;5094521;28;20467;-13
2022/05/18 07:32:09;;;;;;;14.00;7.93;;;22.20;73.20;;;;;;5093959;28;20523;-15
2022/05/18 07:34:36;;;;;;;13.88;8.65;;;22.50;74.20;;;;;;5093988;28;20056;-13
2022/05/18 07:37:02;;;;;;;14.70;8.70;;;22.80;74.00;;;;;;5131977;22;20107;-15
2022/05/18 07:39:28;;;;;;;14.02;8.40;;;23.20;72.60;;;;;;5054487;28;20025;-16
2022/05/18 07:41:56;;;;;;;14.18;9.32;;;23.40;70.50;;;;;;5054034;28;20099;-16
2022/05/18 07:44:22;;;;;;;12.88;9.32;;;23.40;69.30;;;;;;5053909;28;20029;-16
2022/05/18 07:46:49;;;;;;;15.60;9.40;;;23.40;68.10;;;;;;5054506;28;20074;-15
2022/05/18 07:49:15;;;;;;;13.63;8.45;;;23.40;69.30;;;;;;5054455;28;20053;-16
2022/05/18 07:51:41;;;;;;;14.77;9.75;;;23.40;69.10;;;;;;5054015;28;20021;-14
2022/05/18 07:54:07;;;;;;;14.85;9.57;;;23.40;68.00;;;;;;5054072;28;20036;-15
2022/05/18 07:56:36;;;;;;;14.13;9.52;;;23.50;68.90;;;;;;5053687;28;20388;-15
2022/05/18 07:59:04;;;;;;;16.20;8.98;;;23.60;69.20;;;;;;5053732;28;20025;-14
2022/05/18 08:01:30;;;;;;;13.38;9.25;;;23.90;68.50;;;;;;5054019;28;20049;-15
2022/05/18 08:03:56;;;;;;;14.52;8.35;;;24.20;68.40;;;;;;5053957;28;20028;-15
2022/05/18 08:06:22;;;;;;;11.07;8.23;;;24.70;67.60;;;;;;5053420;28;20021;-15
2022/05/18 08:08:48;;;;;;;14.10;8.35;;;24.90;67.00;;;;;;5054113;28;20109;-15
2022/05/18 08:16:47;;;;;;;12.75;8.38;;;25.80;64.90;;;;;;5054042;28;20396;-16
2022/05/18 08:19:15;;;;;;;12.73;8.35;;;26.10;63.00;;;;;;5053742;28;20029;-16
2022/05/18 08:21:41;;;;;;;14.73;9.70;;;26.20;63.10;;;;;;5053270;28;20021;-15
2022/05/18 08:24:08;;;;;;;14.88;9.45;;;26.10;62.90;;;;;;5053624;28;20120;-15
2022/05/18 08:26:34;;;;;;;12.20;8.25;;;26.10;63.80;;;;;;5053284;28;20492;-15
2022/05/18 08:29:03;;;;;;;13.27;9.80;;;26.30;64.30;;;;;;5053266;28;20515;-15
2022/05/18 08:31:29;;;;;;;13.32;9.40;;;26.60;63.90;;;;;;5053184;28;20021;-15
2022/05/18 08:33:55;;;;;;;14.90;9.35;;;26.70;62.40;;;;;;5053445;28;20118;-15
2022/05/18 08:36:24;;;;;;;20.15;9.73;;;26.80;62.10;;;;;;5052868;28;20041;-16
2022/05/18 08:38:51;;;;;;;11.40;9.07;;;26.60;61.70;;;;;;5053638;28;20100;-15
2022/05/18 08:41:25;;;;;;;11.98;9.10;;;26.60;62.10;;;;;;5053044;28;20037;-16
2022/05/18 08:43:54;;;;;;;13.75;7.95;;;26.60;61.30;;;;;;5105706;22;20055;-12
2022/05/18 08:46:32;;;;;;;10.23;7.75;;;26.50;62.10;;;;;;5052965;28;20025;-14
2022/05/18 08:49:20;;;;;;;10.77;7.97;;;26.40;61.00;;;;;;5053434;28;20054;-12
2022/05/18 08:51:48;;;;;;;12.23;7.60;;;26.30;61.70;;;;;;5052970;28;20109;-13
2022/05/18 08:54:35;;;;;;;12.23;7.45;;;26.40;61.50;;;;;;5053051;28;20068;-14
2022/05/18 08:57:04;;;;;;;13.48;8.25;;;26.50;60.50;;;;;;5053274;28;20056;-13
2022/05/18 08:59:37;;;;;;;11.18;7.13;;;26.80;59.10;;;;;;5053157;28;20459;-12
2022/05/18 09:02:23;;;;;;;9.18;6.60;;;27.00;59.10;;;;;;5052898;28;20036;-13
2022/05/18 09:05:07;;;;;;;10.98;6.50;;;27.40;57.80;;;;;;5053261;28;20032;-13
2022/05/18 09:08:08;;;;;;;11.55;6.78;;;27.70;56.40;;;;;;5052998;28;20029;-12
2022/05/18 09:10:44;;;;;;;9.75;6.25;;;27.70;55.30;;;;;;5052735;28;20025;-12
2022/05/18 09:13:10;;;;;;;11.00;6.68;;;27.80;54.60;;;;;;5052676;28;20111;-13
2022/05/18 09:15:51;;;;;;;12.10;6.28;;;27.50;55.50;;;;;;5052738;28;20539;-12
2022/05/18 09:18:49;;;;;;;10.52;6.32;;;27.80;55.00;;;;;;5052553;28;20024;-12
2022/05/18 09:21:36;;;;;;;10.93;5.97;;;27.90;53.60;;;;;;5052772;28;20091;-12
2022/05/18 09:24:16;;;;;;;10.13;6.13;;;27.70;54.80;;;;;;5052670;28;20087;-13
2022/05/18 09:27:13;;;;;;;8.65;5.82;;;27.30;56.00;;;;;;5052682;28;20075;-13
2022/05/18 09:29:45;;;;;;;10.88;5.70;;;27.30;55.10;;;;;;5030968;28;20065;-13
2022/05/18 09:32:29;;;;;;;7.25;5.10;;;27.10;56.10;;;;;;5030710;28;20038;-12
2022/05/18 09:34:55;;;;;;;7.75;4.35;;;27.30;55.10;;;;;;5014306;28;20155;-13
2022/05/18 09:37:53;;;;;;;7.13;4.60;;;27.50;54.50;;;;;;5031013;28;20104;-13
2022/05/18 09:40:36;;;;;;;7.28;4.18;;;27.60;54.20;;;;;;5026503;28;20624;-13
2022/05/18 09:43:18;;;;;;;8.68;4.70;;;27.70;52.10;;;;;;5030546;28;20053;-14
2022/05/18 09:45:47;;;;;;;6.82;4.25;;;27.50;53.80;;;;;;5030659;28;20558;-13
2022/05/18 09:48:35;;;;;;;7.68;4.30;;;27.40;51.80;;;;;;5030517;28;20068;-14
2022/05/18 09:51:04;;;;;;;8.15;4.15;;;27.30;51.00;;;;;;5030072;28;20038;-13
2022/05/18 09:53:30;;;;;;;7.13;4.50;;;27.00;50.50;;;;;;5031124;28;20022;-13
2022/05/18 09:55:57;;;;;;;9.00;4.10;;;27.00;51.40;;;;;;5034132;28;20176;-12
2022/05/18 09:58:35;;;;;;;8.27;3.92;;;27.30;51.50;;;;;;5033801;28;20148;-12
2022/05/18 10:09:41;;;;;;;7.25;3.72;;;28.80;49.50;;;;;;5056019;28;20036;-15
2022/05/18 10:12:35;;;;;;;5.82;3.70;;;29.20;45.10;;;;;;5056147;28;20036;-13
2022/05/18 10:15:19;;;;;;;7.28;4.00;;;29.40;45.50;;;;;;5055879;28;20366;-13
2022/05/18 10:17:50;;;;;;;6.13;3.88;;;29.60;45.40;;;;;;5056013;28;20454;-13
2022/05/18 10:20:33;;;;;;;5.65;3.40;;;30.00;43.20;;;;;;5055477;28;20373;-13
2022/05/18 10:23:00;;;;;;;5.90;3.80;;;30.40;42.80;;;;;;5056096;28;20063;-13
2022/05/18 10:25:41;;;;;;;8.38;3.80;;;30.60;42.60;;;;;;5055583;28;20025;-13
2022/05/18 10:28:20;;;;;;;4.40;3.50;;;30.90;42.10;;;;;;5055743;28;20020;-14
2022/05/18 10:31:04;;;;;;;6.82;3.60;;;31.20;41.20;;;;;;5055816;28;20100;-13
2022/05/18 10:33:38;;;;;;;4.95;3.60;;;31.40;41.00;;;;;;5055587;28;20029;-13
2022/05/18 10:36:29;;;;;;;5.78;3.70;;;31.70;41.70;;;;;;5055937;28;20029;-13
2022/05/18 10:38:58;;;;;;;7.00;3.80;;;31.90;41.80;;;;;;5048027;28;20107;-13
2022/05/18 10:41:36;;;;;;;7.10;3.47;;;31.90;41.70;;;;;;5055264;28;20025;-13
2022/05/18 10:44:12;;;;;;;5.45;3.83;;;32.00;42.20;;;;;;5055126;28;20049;-13
2022/05/18 10:46:47;;;;;;;8.90;3.63;;;32.30;41.70;;;;;;5055063;28;20055;-13
2022/05/18 10:49:35;;;;;;;6.07;3.42;;;32.30;41.00;;;;;;5055091;28;20380;-13
2022/05/18 10:52:16;;;;;;;5.30;3.20;;;32.30;38.30;;;;;;5055179;28;20039;-13
2022/05/18 10:55:01;;;;;;;6.18;3.45;;;32.30;40.30;;;;;;5055274;28;20043;-13
2022/05/18 10:57:39;;;;;;;4.20;3.30;;;32.40;40.20;;;;;;5055421;28;20503;-12
2022/05/18 11:00:15;;;;;;;5.43;3.08;;;32.50;40.50;;;;;;5054831;28;20040;-13
2022/05/18 11:03:02;;;;;;;6.25;3.20;;;32.70;39.60;;;;;;5055434;28;20029;-13
2022/05/18 11:05:51;;;;;;;6.28;3.42;;;32.90;39.00;;;;;;5054407;28;20056;-13
2022/05/18 11:08:21;;;;;;;7.95;3.83;;;33.20;37.70;;;;;;5054674;28;20025;-13
2022/05/18 11:11:09;;;;;;;4.28;3.25;;;32.90;35.90;;;;;;5055102;28;20040;-13
2022/05/18 11:13:50;;;;;;;4.05;3.03;;;32.80;38.30;;;;;;5054785;28;20025;-13
2022/05/18 11:16:23;;;;;;;5.35;3.10;;;33.00;38.70;;;;;;5054847;28;20025;-13
2022/05/18 11:19:17;;;;;;;6.43;3.20;;;33.30;36.90;;;;;;5055296;28;20051;-13
2022/05/18 11:22:21;;;;;;;4.25;3.05;;;33.50;36.30;;;;;;5046417;28;20037;-13
2022/05/18 11:25:05;;;;;;;6.10;2.90;;;33.90;36.90;;;;;;5054793;28;20048;-13
2022/05/18 11:28:10;;;;;;;7.18;3.45;;;34.20;36.20;;;;;;5054903;28;20021;-14
2022/05/18 11:31:04;;;;;;;9.02;3.58;;;34.40;34.90;;;;;;5000316;28;20084;-13
2022/05/18 11:33:39;;;;;;;5.00;3.35;;;34.20;35.40;;;;;;5054886;28;20041;-13
2022/05/18 11:36:48;;;;;;;7.20;2.85;;;34.40;34.60;;;;;;5054868;28;20021;-13
2022/05/18 11:39:37;;;;;;;4.82;3.33;;;34.70;34.90;;;;;;5054595;28;20472;-13
2022/05/18 11:42:23;;;;;;;3.67;3.00;;;34.90;34.40;;;;;;5054438;28;20044;-13
2022/05/18 11:45:17;;;;;;;7.07;3.50;;;35.10;34.60;;;;;;5053885;28;20053;-13
2022/05/18 11:47:46;;;;;;;3.58;2.90;;;35.30;33.40;;;;;;5054030;28;20021;-14
2022/05/18 11:50:14;;;;;;;4.60;3.15;;;35.50;34.40;;;;;;5053926;28;20449;-14
2022/05/18 11:52:59;;;;;;;4.72;3.20;;;35.80;33.30;;;;;;5053821;28;20392;-13
2022/05/18 11:56:01;;;;;;;7.07;3.03;;;35.90;32.30;;;;;;5054243;28;20036;-13
2022/05/18 11:58:53;;;;;;;6.00;3.13;;;35.90;32.80;;;;;;5053832;28;20029;-13
2022/05/18 12:01:50;;;;;;;5.30;3.50;;;35.90;33.40;;;;;;5054096;28;20104;-13
2022/05/18 12:04:44;;;;;;;4.88;3.65;;;36.00;33.10;;;;;;5053516;28;20025;-14
2022/05/18 12:07:24;;;;;;;4.97;3.20;;;36.00;33.70;;;;;;5054017;28;20033;-13
2022/05/18 12:10:08;;;;;;;4.72;3.00;;;36.00;33.60;;;;;;5053898;28;20536;-14
2022/05/18 12:12:56;;;;;;;6.15;3.40;;;36.20;33.20;;;;;;5053401;28;20033;-14
2022/05/18 12:15:45;;;;;;;4.85;3.13;;;36.00;34.10;;;;;;5053677;28;20108;-15
2022/05/18 12:18:39;;;;;;;5.55;3.00;;;36.40;33.80;;;;;;5053728;28;20033;-12
2022/05/18 12:21:17;;;;;;;5.53;3.20;;;36.60;32.40;;;;;;5047948;28;20048;-13
2022/05/18 12:23:48;;;;;;;4.03;3.30;;;36.70;32.70;;;;;;5053708;28;20052;-13
2022/05/18 12:26:16;;;;;;;3.35;3.05;;;36.90;32.40;;;;;;5053149;28;20025;-15
2022/05/18 12:28:44;;;;;;;7.35;3.38;;;36.90;32.00;;;;;;5053857;28;20498;-13
2022/05/18 12:31:12;;;;;;;8.18;3.38;;;37.10;31.90;;;;;;5053695;28;20029;-13
2022/05/18 12:33:58;;;;;;;3.72;3.10;;;37.20;32.30;;;;;;5053496;28;20035;-13
2022/05/18 12:36:34;;;;;;;3.35;3.00;;;37.20;31.90;;;;;;5053164;28;20029;-13
2022/05/18 12:39:13;;;;;;;5.78;3.17;;;37.30;32.10;;;;;;5053722;28;20020;-13
2022/05/18 12:41:55;;;;;;;4.18;2.88;;;37.20;32.00;;;;;;5053464;28;20078;-13
2022/05/18 12:44:40;;;;;;;4.13;3.10;;;36.90;32.60;;;;;;5052625;28;20101;-14
2022/05/18 12:47:25;;;;;;;4.80;3.05;;;37.10;32.80;;;;;;5053498;28;20263;-13
2022/05/18 12:50:14;;;;;;;5.90;3.33;;;37.30;32.00;;;;;;5035324;28;20021;-13
2022/05/18 12:52:58;;;;;;;5.25;3.40;;;37.40;32.10;;;;;;5053783;28;20025;-14
2022/05/18 12:55:24;;;;;;;5.70;3.30;;;37.30;32.30;;;;;;5053012;28;20480;-14
2022/05/18 12:57:54;;;;;;;4.93;3.00;;;37.20;31.30;;;;;;5053293;28;20040;-13
2022/05/18 13:00:25;;;;;;;4.85;3.08;;;37.20;32.00;;;;;;5052710;28;20556;-13
2022/05/18 13:03:09;;;;;;;6.38;3.40;;;37.20;32.60;;;;;;5052906;28;20028;-14
2022/05/18 13:05:47;;;;;;;6.18;3.30;;;37.40;30.80;;;;;;5052903;28;20033;-14
2022/05/18 13:08:16;;;;;;;5.55;2.95;;;37.40;31.20;;;;;;5052826;28;20029;-14
2022/05/18 13:11:28;;;;;;;5.32;3.40;;;37.50;31.10;;;;;;5053126;28;20056;-13
2022/05/18 13:14:01;;;;;;;3.47;2.90;;;37.50;30.40;;;;;;5047735;28;20032;-14
2022/05/18 13:16:39;;;;;;;5.15;2.90;;;37.50;31.50;;;;;;5052730;28;20040;-13
2022/05/18 13:19:14;;;;;;;4.75;3.10;;;37.30;31.10;;;;;;5053201;28;20024;-14
2022/05/18 13:21:52;;;;;;;4.85;3.33;;;37.30;31.80;;;;;;5053018;28;20036;-13